Terminal Aerodrome Forecast
Issued by NWS Sterling, VA

Home | Current Version | Previous Version | Text Only | Print | Product List | Glossary On
Versions: 1 2 3 4 5 6 7 8 9 10 11 12 13 14 15 16 17 18 19 20 21 22 23
926
FTUS41 KLWX 252054 AAB
TAFBWI
TAF AMD
KBWI 252054Z 2521/2624 29013G30KT 4SM TSRA OVC050CB
      TEMPO 2521/2522 2SM -TSRA BKN020CB
     FM252200 30013G20KT P6SM OVC060
     FM260000 30016G25KT P6SM SCT090
     FM260100 30018G32KT P6SM SCT090
     FM260600 29014G21KT P6SM FEW040
     FM260800 29013G21KT P6SM FEW250
     FM261100 29013G20KT P6SM FEW040
     FM262200 27010KT P6SM FEW250=

USA.gov is the U.S. government's official web portal to all federal, state and local government web resources and services.